SHI4366 LBSF-LTFM
Flight info
| Callsign | SHI4366 |
|---|---|
| Flight time | N/A |
| Altitude | 35000 |
| Route | RUMEN3T/27 RUMEN N739 PDV P127 AYTEK |
| Aircraft | B733/M-SDE2E3FHIRW/S |
Departure
| Time | N/A |
|---|---|
| Airport | Sofia Airport (LBSF) |
Arrival
| Time | 2026-05-04 22:08 |
|---|---|
| Airport | İstanbul Airport (LTFM) |
| Time | Latitude | Longitude | Altitude | Speed | Heading |
|---|---|---|---|---|---|
| 2026-05-04 21:52 | 41.14899 | 28.20845 | 6676 ft | 233 kts | 134° |
| 2026-05-04 21:52 | 41.14048 | 28.21725 | 6490 ft | 232 kts | 135° |
| 2026-05-04 21:52 | 41.12776 | 28.23037 | 6221 ft | 230 kts | 135° |
| 2026-05-04 21:53 | 41.11510 | 28.24342 | 6001 ft | 228 kts | 135° |
| 2026-05-04 21:53 | 41.10249 | 28.25641 | 5800 ft | 227 kts | 135° |
| 2026-05-04 21:53 | 41.09008 | 28.26919 | 5598 ft | 227 kts | 135° |
| 2026-05-04 21:53 | 41.07759 | 28.28203 | 5396 ft | 226 kts | 135° |
| 2026-05-04 21:54 | 41.06517 | 28.29480 | 5198 ft | 225 kts | 135° |
| 2026-05-04 21:54 | 41.05269 | 28.30760 | 4997 ft | 224 kts | 135° |
| 2026-05-04 21:54 | 41.04050 | 28.32012 | 4794 ft | 224 kts | 136° |
| 2026-05-04 21:54 | 41.02819 | 28.33276 | 4599 ft | 223 kts | 136° |
| 2026-05-04 21:55 | 41.01623 | 28.34503 | 4403 ft | 223 kts | 136° |
| 2026-05-04 21:55 | 41.00388 | 28.35770 | 4198 ft | 222 kts | 136° |
| 2026-05-04 21:55 | 40.99176 | 28.37012 | 4014 ft | 220 kts | 136° |
| 2026-05-04 21:55 | 40.98083 | 28.38364 | 3924 ft | 210 kts | 115° |
| 2026-05-04 21:56 | 40.97596 | 28.40127 | 3955 ft | 200 kts | 86° |
| 2026-05-04 21:56 | 40.97578 | 28.41959 | 3993 ft | 198 kts | 82° |
| 2026-05-04 21:56 | 40.97578 | 28.43774 | 4002 ft | 198 kts | 82° |
| 2026-05-04 21:56 | 40.97577 | 28.45603 | 3993 ft | 197 kts | 82° |
| 2026-05-04 21:57 | 40.97575 | 28.47421 | 3980 ft | 197 kts | 82° |
| 2026-05-04 21:57 | 40.97573 | 28.48645 | 3967 ft | 199 kts | 82° |
| 2026-05-04 21:58 | 40.96097 | 28.58536 | 3366 ft | 204 kts | 94° |
| 2026-05-04 21:58 | 40.95951 | 28.60366 | 3230 ft | 198 kts | 80° |
| 2026-05-04 21:59 | 40.95983 | 28.62187 | 3104 ft | 197 kts | 81° |
| 2026-05-04 21:59 | 40.96007 | 28.64006 | 2982 ft | 198 kts | 82° |
| 2026-05-04 21:59 | 40.96031 | 28.65842 | 2951 ft | 198 kts | 83° |
| 2026-05-04 21:59 | 40.96254 | 28.67581 | 2954 ft | 189 kts | 57° |
| 2026-05-04 22:00 | 40.97036 | 28.68827 | 2995 ft | 179 kts | 31° |
| 2026-05-04 22:00 | 40.98104 | 28.69639 | 3000 ft | 177 kts | 21° |
| 2026-05-04 22:00 | 40.99304 | 28.69954 | 2995 ft | 175 kts | 7° |
| 2026-05-04 22:00 | 41.00482 | 28.70308 | 3004 ft | 174 kts | 13° |
| 2026-05-04 22:01 | 41.01665 | 28.70719 | 3005 ft | 173 kts | 13° |
| 2026-05-04 22:01 | 41.02799 | 28.71073 | 3040 ft | 162 kts | 7° |
| 2026-05-04 22:01 | 41.03939 | 28.71245 | 3026 ft | 166 kts | 3° |
| 2026-05-04 22:01 | 41.05080 | 28.71297 | 3005 ft | 163 kts | 0° |
| 2026-05-04 22:02 | 41.06229 | 28.71269 | 2985 ft | 163 kts | 358° |
| 2026-05-04 22:02 | 41.07361 | 28.71204 | 2982 ft | 162 kts | 358° |
| 2026-05-04 22:02 | 41.08501 | 28.71139 | 2985 ft | 163 kts | 359° |
| 2026-05-04 22:02 | 41.09633 | 28.71086 | 2995 ft | 162 kts | 359° |
| 2026-05-04 22:03 | 41.10762 | 28.71044 | 2979 ft | 159 kts | 359° |
| 2026-05-04 22:03 | 41.11863 | 28.71018 | 3016 ft | 150 kts | 0° |
| 2026-05-04 22:03 | 41.12841 | 28.70999 | 2996 ft | 134 kts | 0° |
| 2026-05-04 22:03 | 41.13726 | 28.70984 | 2985 ft | 120 kts | 0° |
| 2026-05-04 22:04 | 41.14563 | 28.70971 | 2771 ft | 119 kts | 0° |
| 2026-05-04 22:04 | 41.15373 | 28.70962 | 2549 ft | 114 kts | 0° |
| 2026-05-04 22:04 | 41.16184 | 28.70956 | 2397 ft | 117 kts | 0° |
| 2026-05-04 22:04 | 41.16999 | 28.70945 | 2247 ft | 117 kts | 359° |
| 2026-05-04 22:05 | 41.17818 | 28.70923 | 2087 ft | 117 kts | 359° |
| 2026-05-04 22:05 | 41.18633 | 28.70900 | 1924 ft | 118 kts | 359° |
| 2026-05-04 22:05 | 41.19464 | 28.70895 | 1761 ft | 119 kts | 359° |
| 2026-05-04 22:05 | 41.20026 | 28.70886 | 1645 ft | 119 kts | 358° |
| 2026-05-04 22:06 | 41.21160 | 28.70849 | 1439 ft | 127 kts | 358° |
| 2026-05-04 22:06 | 41.22046 | 28.70830 | 1253 ft | 127 kts | 359° |
| 2026-05-04 22:06 | 41.22944 | 28.70839 | 1061 ft | 129 kts | 359° |
| 2026-05-04 22:06 | 41.23855 | 28.70819 | 873 ft | 130 kts | 357° |
| 2026-05-04 22:07 | 41.24749 | 28.70773 | 711 ft | 130 kts | 357° |
| 2026-05-04 22:07 | 41.25359 | 28.70765 | 595 ft | 130 kts | 359° |
| 2026-05-04 22:07 | 41.26590 | 28.70743 | 369 ft | 132 kts | 357° |
| 2026-05-04 22:07 | 41.27480 | 28.70719 | 333 ft | 119 kts | 358° |
| 2026-05-04 22:08 | 41.28082 | 28.70710 | 333 ft | 51 kts | 3° |
| 2026-05-04 22:08 | 41.28356 | 28.70807 | 333 ft | 22 kts | 30° |
| 2026-05-04 22:08 | 41.28376 | 28.70822 | 333 ft | 0 kts | 31° |
| 2026-05-04 22:09 | 41.28377 | 28.70823 | 333 ft | 0 kts | 31° |
| 2026-05-04 22:09 | 41.28400 | 28.70840 | 333 ft | 7 kts | 29° |
| 2026-05-04 22:10 | 41.28467 | 28.70899 | 333 ft | 15 kts | 47° |
| 2026-05-04 22:10 | 41.28499 | 28.71039 | 333 ft | 16 kts | 91° |
| 2026-05-04 22:10 | 41.28500 | 28.71143 | 333 ft | 5 kts | 88° |
| 2026-05-04 22:10 | 41.28500 | 28.71160 | 333 ft | 1 kts | 88° |
| 2026-05-04 22:11 | 41.28501 | 28.71181 | 333 ft | 2 kts | 88° |
| 2026-05-04 22:11 | 41.28501 | 28.71184 | 333 ft | 0 kts | 88° |
| 2026-05-04 22:12 | 41.28501 | 28.71186 | 333 ft | 1 kts | 88° |
| 2026-05-04 22:12 | 41.28502 | 28.71223 | 333 ft | 7 kts | 88° |
| 2026-05-04 22:12 | 41.28503 | 28.71325 | 333 ft | 15 kts | 90° |
| 2026-05-04 22:12 | 41.28505 | 28.71508 | 333 ft | 24 kts | 89° |
| 2026-05-04 22:13 | 41.28508 | 28.71751 | 332 ft | 27 kts | 89° |
| 2026-05-04 22:13 | 41.28513 | 28.72004 | 333 ft | 26 kts | 89° |
| 2026-05-04 22:13 | 41.28513 | 28.72044 | 333 ft | 0 kts | 89° |
| 2026-05-04 22:13 | 41.28520 | 28.72072 | 333 ft | 5 kts | 51° |
| 2026-05-04 22:14 | 41.28573 | 28.72093 | 333 ft | 10 kts | 0° |
| 2026-05-04 22:14 | 41.28616 | 28.72096 | 333 ft | 0 kts | 3° |
| 2026-05-04 22:14 | 41.28617 | 28.72096 | 333 ft | 0 kts | 3° |